sensor_id;sensor_type;location;lat;lon;timestamp;temperature;humidity
1083;DHT22;530;51.448;7.238;2023-02-20T00:00:30;7.60;99.90
1083;DHT22;530;51.448;7.238;2023-02-20T00:02:56;7.50;99.90
1083;DHT22;530;51.448;7.238;2023-02-20T00:05:22;7.50;99.90
1083;DHT22;530;51.448;7.238;2023-02-20T00:07:48;7.50;99.90
1083;DHT22;530;51.448;7.238;2023-02-20T00:10:15;7.50;99.90
1083;DHT22;530;51.448;7.238;2023-02-20T00:12:41;7.50;99.90
1083;DHT22;530;51.448;7.238;2023-02-20T00:15:07;7.50;99.90
1083;DHT22;530;51.448;7.238;2023-02-20T00:17:33;7.50;99.90
1083;DHT22;530;51.448;7.238;2023-02-20T00:19:59;7.50;99.90
1083;DHT22;530;51.448;7.238;2023-02-20T00:22:25;7.50;99.90
1083;DHT22;530;51.448;7.238;2023-02-20T00:24:51;7.50;99.90
1083;DHT22;530;51.448;7.238;2023-02-20T00:27:17;7.50;99.90
1083;DHT22;530;51.448;7.238;2023-02-20T00:29:44;7.40;99.90
1083;DHT22;530;51.448;7.238;2023-02-20T00:32:11;7.70;99.90
1083;DHT22;530;51.448;7.238;2023-02-20T00:34:37;7.40;99.90
1083;DHT22;530;51.448;7.238;2023-02-20T00:37:03;7.40;99.90
1083;DHT22;530;51.448;7.238;2023-02-20T00:39:30;7.60;99.90
1083;DHT22;530;51.448;7.238;2023-02-20T00:41:56;7.50;99.90
1083;DHT22;530;51.448;7.238;2023-02-20T00:44:22;7.40;99.90
1083;DHT22;530;51.448;7.238;2023-02-20T00:46:48;7.40;99.90
1083;DHT22;530;51.448;7.238;2023-02-20T00:49:13;7.60;99.90
1083;DHT22;530;51.448;7.238;2023-02-20T00:51:39;7.40;99.90
1083;DHT22;530;51.448;7.238;2023-02-20T00:54:05;7.50;99.90
1083;DHT22;530;51.448;7.238;2023-02-20T00:56:30;7.50;99.90
1083;DHT22;530;51.448;7.238;2023-02-20T00:58:56;7.80;99.90
1083;DHT22;530;51.448;7.238;2023-02-20T01:01:22;7.50;99.90
1083;DHT22;530;51.448;7.238;2023-02-20T01:03:49;7.60;99.90
1083;DHT22;530;51.448;7.238;2023-02-20T01:06:15;7.50;99.90
1083;DHT22;530;51.448;7.238;2023-02-20T01:08:41;7.50;99.90
1083;DHT22;530;51.448;7.238;2023-02-20T01:11:06;7.50;99.90
1083;DHT22;530;51.448;7.238;2023-02-20T01:13:32;7.50;99.90
1083;DHT22;530;51.448;7.238;2023-02-20T01:15:58;7.50;99.90
1083;DHT22;530;51.448;7.238;2023-02-20T01:18:24;7.50;99.90
1083;DHT22;530;51.448;7.238;2023-02-20T01:20:49;7.40;99.90
1083;DHT22;530;51.448;7.238;2023-02-20T01:23:15;7.50;99.90
1083;DHT22;530;51.448;7.238;2023-02-20T01:25:41;7.40;99.90
1083;DHT22;530;51.448;7.238;2023-02-20T01:28:06;7.50;99.90
1083;DHT22;530;51.448;7.238;2023-02-20T01:30:32;7.40;99.90
1083;DHT22;530;51.448;7.238;2023-02-20T01:32:58;7.40;99.90
1083;DHT22;530;51.448;7.238;2023-02-20T01:35:23;7.50;99.90
1083;DHT22;530;51.448;7.238;2023-02-20T01:37:49;7.50;99.90
1083;DHT22;530;51.448;7.238;2023-02-20T01:40:17;7.60;99.90
1083;DHT22;530;51.448;7.238;2023-02-20T01:42:43;7.60;99.90
1083;DHT22;530;51.448;7.238;2023-02-20T01:45:36;7.70;99.90
1083;DHT22;530;51.448;7.238;2023-02-20T01:48:03;7.50;99.90
1083;DHT22;530;51.448;7.238;2023-02-20T01:50:51;7.60;99.90
1083;DHT22;530;51.448;7.238;2023-02-20T01:53:21;7.50;99.90
1083;DHT22;530;51.448;7.238;2023-02-20T01:56:03;7.50;99.90
1083;DHT22;530;51.448;7.238;2023-02-20T01:58:40;7.40;99.90
1083;DHT22;530;51.448;7.238;2023-02-20T02:01:06;7.50;99.90
1083;DHT22;530;51.448;7.238;2023-02-20T02:03:35;7.70;99.90
1083;DHT22;530;51.448;7.238;2023-02-20T02:06:06;7.70;99.90
1083;DHT22;530;51.448;7.238;2023-02-20T02:08:34;7.50;99.90
1083;DHT22;530;51.448;7.238;2023-02-20T02:11:04;7.50;99.90
1083;DHT22;530;51.448;7.238;2023-02-20T02:13:31;7.50;99.90
1083;DHT22;530;51.448;7.238;2023-02-20T02:30:02;7.80;99.90
1083;DHT22;530;51.448;7.238;2023-02-20T02:40:44;7.60;99.90
1083;DHT22;530;51.448;7.238;2023-02-20T02:43:28;7.70;99.90
1083;DHT22;530;51.448;7.238;2023-02-20T02:46:08;7.60;99.90
1083;DHT22;530;51.448;7.238;2023-02-20T02:48:51;7.50;99.90
1083;DHT22;530;51.448;7.238;2023-02-20T02:51:24;7.50;99.90
1083;DHT22;530;51.448;7.238;2023-02-20T02:54:08;7.40;99.90
1083;DHT22;530;51.448;7.238;2023-02-20T02:56:35;7.70;99.90
1083;DHT22;530;51.448;7.238;2023-02-20T02:59:02;7.70;99.90
1083;DHT22;530;51.448;7.238;2023-02-20T03:01:30;7.60;99.90
1083;DHT22;530;51.448;7.238;2023-02-20T03:04:01;7.40;99.90
1083;DHT22;530;51.448;7.238;2023-02-20T03:06:31;7.60;99.90
1083;DHT22;530;51.448;7.238;2023-02-20T03:09:06;7.60;99.90
1083;DHT22;530;51.448;7.238;2023-02-20T03:11:33;7.50;99.90
1083;DHT22;530;51.448;7.238;2023-02-20T03:14:20;7.50;99.90
1083;DHT22;530;51.448;7.238;2023-02-20T03:22:02;7.50;99.90
1083;DHT22;530;51.448;7.238;2023-02-20T03:24:32;7.30;99.90
1083;DHT22;530;51.448;7.238;2023-02-20T03:27:18;7.70;99.90
1083;DHT22;530;51.448;7.238;2023-02-20T03:29:45;7.50;99.90
1083;DHT22;530;51.448;7.238;2023-02-20T03:32:13;7.50;99.90
1083;DHT22;530;51.448;7.238;2023-02-20T03:34:59;7.80;99.90
1083;DHT22;530;51.448;7.238;2023-02-20T03:37:47;7.70;99.90
1083;DHT22;530;51.448;7.238;2023-02-20T03:40:32;7.60;99.90
1083;DHT22;530;51.448;7.238;2023-02-20T03:43:18;7.60;99.90
1083;DHT22;530;51.448;7.238;2023-02-20T03:46:12;7.50;99.90
1083;DHT22;530;51.448;7.238;2023-02-20T03:48:45;7.70;99.90
1083;DHT22;530;51.448;7.238;2023-02-20T03:51:13;7.40;99.90
1083;DHT22;530;51.448;7.238;2023-02-20T03:53:40;7.50;99.90
1083;DHT22;530;51.448;7.238;2023-02-20T03:56:11;7.60;99.90
1083;DHT22;530;51.448;7.238;2023-02-20T03:58:42;7.40;99.90
1083;DHT22;530;51.448;7.238;2023-02-20T04:01:13;7.50;99.90
1083;DHT22;530;51.448;7.238;2023-02-20T04:03:44;7.50;99.90
1083;DHT22;530;51.448;7.238;2023-02-20T04:06:13;7.60;99.90
1083;DHT22;530;51.448;7.238;2023-02-20T04:08:48;7.60;99.90
1083;DHT22;530;51.448;7.238;2023-02-20T04:11:31;7.50;99.90
1083;DHT22;530;51.448;7.238;2023-02-20T04:13:58;7.50;99.90
1083;DHT22;530;51.448;7.238;2023-02-20T04:16:25;7.40;99.90
1083;DHT22;530;51.448;7.238;2023-02-20T04:18:51;7.40;99.90
1083;DHT22;530;51.448;7.238;2023-02-20T04:21:22;7.50;99.90
1083;DHT22;530;51.448;7.238;2023-02-20T04:24:10;7.30;99.90
1083;DHT22;530;51.448;7.238;2023-02-20T04:26:37;7.40;99.90
1083;DHT22;530;51.448;7.238;2023-02-20T04:29:04;7.20;99.90
1083;DHT22;530;51.448;7.238;2023-02-20T04:31:30;7.50;99.90
1083;DHT22;530;51.448;7.238;2023-02-20T04:33:56;7.40;99.90
1083;DHT22;530;51.448;7.238;2023-02-20T04:36:22;7.40;99.90
1083;DHT22;530;51.448;7.238;2023-02-20T04:38:49;7.40;99.90
1083;DHT22;530;51.448;7.238;2023-02-20T04:41:14;7.20;99.90
1083;DHT22;530;51.448;7.238;2023-02-20T04:43:40;7.40;99.90
1083;DHT22;530;51.448;7.238;2023-02-20T04:46:06;7.40;99.90
1083;DHT22;530;51.448;7.238;2023-02-20T04:48:32;7.40;99.90
1083;DHT22;530;51.448;7.238;2023-02-20T04:50:57;7.50;99.90
1083;DHT22;530;51.448;7.238;2023-02-20T04:53:23;7.30;99.90
1083;DHT22;530;51.448;7.238;2023-02-20T04:55:49;7.40;99.90
1083;DHT22;530;51.448;7.238;2023-02-20T04:58:14;7.30;99.90
1083;DHT22;530;51.448;7.238;2023-02-20T05:00:40;7.40;99.90
1083;DHT22;530;51.448;7.238;2023-02-20T05:03:06;7.40;99.90
1083;DHT22;530;51.448;7.238;2023-02-20T05:05:31;7.40;99.90
1083;DHT22;530;51.448;7.238;2023-02-20T05:08:00;7.20;99.90
1083;DHT22;530;51.448;7.238;2023-02-20T05:10:27;7.60;99.90
1083;DHT22;530;51.448;7.238;2023-02-20T05:12:53;7.30;99.90
1083;DHT22;530;51.448;7.238;2023-02-20T05:15:21;7.50;99.90
1083;DHT22;530;51.448;7.238;2023-02-20T05:17:47;7.70;99.90
1083;DHT22;530;51.448;7.238;2023-02-20T05:20:13;7.50;99.90
1083;DHT22;530;51.448;7.238;2023-02-20T05:22:39;7.60;99.90
1083;DHT22;530;51.448;7.238;2023-02-20T05:25:05;7.40;99.90
1083;DHT22;530;51.448;7.238;2023-02-20T05:27:31;7.40;99.90
1083;DHT22;530;51.448;7.238;2023-02-20T05:29:58;7.40;99.90
1083;DHT22;530;51.448;7.238;2023-02-20T05:32:26;7.50;99.90
1083;DHT22;530;51.448;7.238;2023-02-20T05:34:52;7.30;99.90
1083;DHT22;530;51.448;7.238;2023-02-20T05:37:19;7.50;99.90
1083;DHT22;530;51.448;7.238;2023-02-20T05:39:46;7.30;99.90
1083;DHT22;530;51.448;7.238;2023-02-20T05:42:12;7.40;99.90
1083;DHT22;530;51.448;7.238;2023-02-20T05:44:38;7.40;99.90
1083;DHT22;530;51.448;7.238;2023-02-20T05:47:04;7.40;99.90
1083;DHT22;530;51.448;7.238;2023-02-20T05:49:30;7.40;99.90
1083;DHT22;530;51.448;7.238;2023-02-20T05:51:57;7.50;99.90
1083;DHT22;530;51.448;7.238;2023-02-20T05:54:23;7.30;99.90
1083;DHT22;530;51.448;7.238;2023-02-20T05:56:49;7.50;99.90
1083;DHT22;530;51.448;7.238;2023-02-20T05:59:18;7.30;99.90
1083;DHT22;530;51.448;7.238;2023-02-20T06:01:44;7.40;99.90
1083;DHT22;530;51.448;7.238;2023-02-20T06:04:10;7.50;99.90
1083;DHT22;530;51.448;7.238;2023-02-20T06:06:41;7.40;99.90
1083;DHT22;530;51.448;7.238;2023-02-20T06:09:08;7.40;99.90
1083;DHT22;530;51.448;7.238;2023-02-20T06:11:36;7.30;99.90
1083;DHT22;530;51.448;7.238;2023-02-20T06:14:03;7.30;99.90
1083;DHT22;530;51.448;7.238;2023-02-20T06:16:29;7.30;99.90
1083;DHT22;530;51.448;7.238;2023-02-20T06:18:55;7.30;99.90
1083;DHT22;530;51.448;7.238;2023-02-20T06:21:23;7.50;99.90
1083;DHT22;530;51.448;7.238;2023-02-20T06:23:50;7.30;99.90
1083;DHT22;530;51.448;7.238;2023-02-20T06:26:17;7.20;99.90
1083;DHT22;530;51.448;7.238;2023-02-20T06:28:43;7.30;99.90
1083;DHT22;530;51.448;7.238;2023-02-20T06:31:10;7.30;99.90
1083;DHT22;530;51.448;7.238;2023-02-20T06:33:36;7.30;99.90
1083;DHT22;530;51.448;7.238;2023-02-20T06:36:03;7.40;99.90
1083;DHT22;530;51.448;7.238;2023-02-20T06:38:28;7.40;99.90
1083;DHT22;530;51.448;7.238;2023-02-20T06:40:54;7.50;99.90
1083;DHT22;530;51.448;7.238;2023-02-20T06:43:20;7.30;99.90
1083;DHT22;530;51.448;7.238;2023-02-20T06:45:46;7.10;99.90
1083;DHT22;530;51.448;7.238;2023-02-20T06:48:12;7.30;99.90
1083;DHT22;530;51.448;7.238;2023-02-20T06:50:42;7.20;99.90
1083;DHT22;530;51.448;7.238;2023-02-20T06:53:08;7.30;99.90
1083;DHT22;530;51.448;7.238;2023-02-20T06:55:34;7.30;99.90
1083;DHT22;530;51.448;7.238;2023-02-20T06:57:59;7.30;99.90
1083;DHT22;530;51.448;7.238;2023-02-20T07:00:25;7.30;99.90
1083;DHT22;530;51.448;7.238;2023-02-20T07:02:51;7.40;99.90
1083;DHT22;530;51.448;7.238;2023-02-20T07:05:17;7.30;99.90
1083;DHT22;530;51.448;7.238;2023-02-20T07:07:43;7.30;99.90
1083;DHT22;530;51.448;7.238;2023-02-20T07:10:09;7.30;99.90
1083;DHT22;530;51.448;7.238;2023-02-20T07:12:35;7.30;99.90
1083;DHT22;530;51.448;7.238;2023-02-20T07:15:06;7.30;99.90
1083;DHT22;530;51.448;7.238;2023-02-20T07:17:32;7.20;99.90
1083;DHT22;530;51.448;7.238;2023-02-20T07:19:57;7.50;99.90
1083;DHT22;530;51.448;7.238;2023-02-20T07:22:23;7.20;99.90
1083;DHT22;530;51.448;7.238;2023-02-20T07:24:52;7.30;99.90
1083;DHT22;530;51.448;7.238;2023-02-20T07:27:19;7.20;99.90
1083;DHT22;530;51.448;7.238;2023-02-20T07:29:45;7.20;99.90
1083;DHT22;530;51.448;7.238;2023-02-20T07:32:12;7.20;99.90
1083;DHT22;530;51.448;7.238;2023-02-20T07:34:38;7.20;99.90
1083;DHT22;530;51.448;7.238;2023-02-20T07:37:04;7.10;99.90
1083;DHT22;530;51.448;7.238;2023-02-20T07:39:29;7.10;99.90
1083;DHT22;530;51.448;7.238;2023-02-20T07:41:55;7.10;99.90
1083;DHT22;530;51.448;7.238;2023-02-20T07:44:21;7.20;99.90
1083;DHT22;530;51.448;7.238;2023-02-20T07:46:47;7.10;99.90
1083;DHT22;530;51.448;7.238;2023-02-20T07:49:12;7.40;99.90
1083;DHT22;530;51.448;7.238;2023-02-20T07:51:38;7.30;99.90
1083;DHT22;530;51.448;7.238;2023-02-20T07:54:04;7.20;99.90
1083;DHT22;530;51.448;7.238;2023-02-20T07:56:29;7.30;99.90
1083;DHT22;530;51.448;7.238;2023-02-20T07:58:55;7.30;99.90
1083;DHT22;530;51.448;7.238;2023-02-20T08:01:21;7.10;99.90
1083;DHT22;530;51.448;7.238;2023-02-20T08:03:47;7.20;99.90
1083;DHT22;530;51.448;7.238;2023-02-20T08:06:16;7.40;99.90
1083;DHT22;530;51.448;7.238;2023-02-20T08:08:42;7.30;99.90
1083;DHT22;530;51.448;7.238;2023-02-20T08:11:11;7.30;99.90
1083;DHT22;530;51.448;7.238;2023-02-20T08:13:37;7.20;99.90
1083;DHT22;530;51.448;7.238;2023-02-20T08:16:03;7.40;99.90
1083;DHT22;530;51.448;7.238;2023-02-20T08:18:29;7.40;99.90
1083;DHT22;530;51.448;7.238;2023-02-20T08:20:54;7.40;99.90
1083;DHT22;530;51.448;7.238;2023-02-20T08:23:21;7.50;99.90
1083;DHT22;530;51.448;7.238;2023-02-20T08:25:47;7.40;99.90
1083;DHT22;530;51.448;7.238;2023-02-20T08:28:13;7.50;99.90
1083;DHT22;530;51.448;7.238;2023-02-20T08:30:39;7.40;99.90
1083;DHT22;530;51.448;7.238;2023-02-20T08:33:04;7.40;99.90
1083;DHT22;530;51.448;7.238;2023-02-20T08:35:33;7.50;99.90
1083;DHT22;530;51.448;7.238;2023-02-20T08:40:50;7.30;99.90
1083;DHT22;530;51.448;7.238;2023-02-20T08:43:16;7.40;99.90
1083;DHT22;530;51.448;7.238;2023-02-20T08:45:42;7.40;99.90
1083;DHT22;530;51.448;7.238;2023-02-20T08:48:07;7.40;99.90
1083;DHT22;530;51.448;7.238;2023-02-20T08:50:33;7.40;99.90
1083;DHT22;530;51.448;7.238;2023-02-20T08:52:59;7.50;99.90
1083;DHT22;530;51.448;7.238;2023-02-20T08:55:25;7.40;99.90
1083;DHT22;530;51.448;7.238;2023-02-20T08:57:50;7.60;99.90
1083;DHT22;530;51.448;7.238;2023-02-20T09:00:16;7.40;99.90
1083;DHT22;530;51.448;7.238;2023-02-20T09:02:45;7.70;99.90
1083;DHT22;530;51.448;7.238;2023-02-20T09:05:11;7.50;99.90
1083;DHT22;530;51.448;7.238;2023-02-20T09:07:37;7.60;99.90
1083;DHT22;530;51.448;7.238;2023-02-20T09:10:03;7.40;99.90
1083;DHT22;530;51.448;7.238;2023-02-20T09:12:29;7.50;99.90
1083;DHT22;530;51.448;7.238;2023-02-20T09:14:56;7.50;99.90
1083;DHT22;530;51.448;7.238;2023-02-20T09:17:27;7.50;99.90
1083;DHT22;530;51.448;7.238;2023-02-20T09:19:54;7.50;99.90
1083;DHT22;530;51.448;7.238;2023-02-20T09:22:23;7.30;99.90
1083;DHT22;530;51.448;7.238;2023-02-20T09:24:50;7.50;99.90
1083;DHT22;530;51.448;7.238;2023-02-20T09:27:16;7.50;99.90
1083;DHT22;530;51.448;7.238;2023-02-20T09:29:41;7.50;99.90
1083;DHT22;530;51.448;7.238;2023-02-20T09:32:09;7.60;99.90
1083;DHT22;530;51.448;7.238;2023-02-20T09:34:34;7.40;99.90
1083;DHT22;530;51.448;7.238;2023-02-20T09:37:00;7.60;99.90
1083;DHT22;530;51.448;7.238;2023-02-20T09:39:26;7.50;99.90
1083;DHT22;530;51.448;7.238;2023-02-20T09:44:58;7.50;99.90
1083;DHT22;530;51.448;7.238;2023-02-20T09:50:00;7.60;99.90
1083;DHT22;530;51.448;7.238;2023-02-20T09:52:28;7.50;99.90
1083;DHT22;530;51.448;7.238;2023-02-20T09:55:04;7.50;99.90
1083;DHT22;530;51.448;7.238;2023-02-20T09:57:31;7.50;99.90
1083;DHT22;530;51.448;7.238;2023-02-20T10:00:13;7.60;99.90
1083;DHT22;530;51.448;7.238;2023-02-20T10:05:28;7.60;99.90
1083;DHT22;530;51.448;7.238;2023-02-20T10:07:54;7.40;99.90
1083;DHT22;530;51.448;7.238;2023-02-20T10:10:22;7.80;99.90
1083;DHT22;530;51.448;7.238;2023-02-20T10:21:56;7.70;99.90
1083;DHT22;530;51.448;7.238;2023-02-20T10:27:21;7.60;99.90
1083;DHT22;530;51.448;7.238;2023-02-20T10:29:50;7.70;99.90
1083;DHT22;530;51.448;7.238;2023-02-20T10:32:25;7.80;99.90
1083;DHT22;530;51.448;7.238;2023-02-20T10:37:27;7.80;99.90
1083;DHT22;530;51.448;7.238;2023-02-20T10:42:45;8.10;99.90
1083;DHT22;530;51.448;7.238;2023-02-20T10:45:17;7.90;99.90
1083;DHT22;530;51.448;7.238;2023-02-20T10:47:58;7.80;99.90
1083;DHT22;530;51.448;7.238;2023-02-20T10:50:58;7.80;99.90
1083;DHT22;530;51.448;7.238;2023-02-20T10:53:26;7.80;99.90
1083;DHT22;530;51.448;7.238;2023-02-20T10:56:16;7.90;99.90
1083;DHT22;530;51.448;7.238;2023-02-20T11:01:22;8.00;99.90
1083;DHT22;530;51.448;7.238;2023-02-20T11:04:12;8.00;99.90
1083;DHT22;530;51.448;7.238;2023-02-20T11:09:15;8.20;99.90
1083;DHT22;530;51.448;7.238;2023-02-20T11:11:43;8.30;99.90
1083;DHT22;530;51.448;7.238;2023-02-20T11:14:25;8.10;99.90
1083;DHT22;530;51.448;7.238;2023-02-20T11:22:05;8.30;99.90
1083;DHT22;530;51.448;7.238;2023-02-20T11:24:38;8.40;99.90
1083;DHT22;530;51.448;7.238;2023-02-20T11:27:12;8.60;99.90
1083;DHT22;530;51.448;7.238;2023-02-20T11:30:02;8.60;99.90
1083;DHT22;530;51.448;7.238;2023-02-20T11:32:39;8.40;99.90
1083;DHT22;530;51.448;7.238;2023-02-20T11:35:22;8.40;99.90
1083;DHT22;530;51.448;7.238;2023-02-20T11:37:51;8.30;99.90
1083;DHT22;530;51.448;7.238;2023-02-20T11:40:36;8.40;99.90
1083;DHT22;530;51.448;7.238;2023-02-20T11:43:31;8.40;99.90
1083;DHT22;530;51.448;7.238;2023-02-20T11:46:17;8.40;99.90
1083;DHT22;530;51.448;7.238;2023-02-20T11:49:02;8.30;99.90
1083;DHT22;530;51.448;7.238;2023-02-20T11:54:16;8.30;99.90
1083;DHT22;530;51.448;7.238;2023-02-20T12:01:51;8.50;99.90
1083;DHT22;530;51.448;7.238;2023-02-20T12:04:21;8.50;99.90
1083;DHT22;530;51.448;7.238;2023-02-20T12:06:47;8.50;99.90
1083;DHT22;530;51.448;7.238;2023-02-20T12:09:25;8.50;99.90
1083;DHT22;530;51.448;7.238;2023-02-20T12:11:53;8.40;99.90
1083;DHT22;530;51.448;7.238;2023-02-20T12:14:21;8.70;99.90
1083;DHT22;530;51.448;7.238;2023-02-20T12:22:03;8.60;99.90
1083;DHT22;530;51.448;7.238;2023-02-20T12:27:40;8.40;99.90
1083;DHT22;530;51.448;7.238;2023-02-20T12:30:43;8.50;99.90
1083;DHT22;530;51.448;7.238;2023-02-20T12:38:54;8.50;99.90
1083;DHT22;530;51.448;7.238;2023-02-20T12:47:15;8.60;99.90
1083;DHT22;530;51.448;7.238;2023-02-20T12:58:56;8.50;99.90
1083;DHT22;530;51.448;7.238;2023-02-20T13:01:23;8.50;99.90
1083;DHT22;530;51.448;7.238;2023-02-20T13:06:50;8.40;99.90
1083;DHT22;530;51.448;7.238;2023-02-20T13:09:23;8.40;99.90
1083;DHT22;530;51.448;7.238;2023-02-20T13:11:56;8.40;99.90
1083;DHT22;530;51.448;7.238;2023-02-20T13:14:30;8.60;99.90
1083;DHT22;530;51.448;7.238;2023-02-20T13:19:49;8.40;99.90
1083;DHT22;530;51.448;7.238;2023-02-20T13:22:17;8.50;99.90
1083;DHT22;530;51.448;7.238;2023-02-20T13:24:43;8.50;99.90
1083;DHT22;530;51.448;7.238;2023-02-20T13:27:30;8.40;99.90
1083;DHT22;530;51.448;7.238;2023-02-20T13:29:57;8.40;99.90
1083;DHT22;530;51.448;7.238;2023-02-20T13:32:31;8.40;99.90
1083;DHT22;530;51.448;7.238;2023-02-20T13:35:33;8.30;99.90
1083;DHT22;530;51.448;7.238;2023-02-20T13:40:37;8.40;99.90
1083;DHT22;530;51.448;7.238;2023-02-20T13:43:29;8.50;99.90
1083;DHT22;530;51.448;7.238;2023-02-20T13:53:52;8.50;99.90
1083;DHT22;530;51.448;7.238;2023-02-20T13:56:25;8.40;99.90
1083;DHT22;530;51.448;7.238;2023-02-20T13:58:53;8.40;99.90
1083;DHT22;530;51.448;7.238;2023-02-20T14:01:19;8.40;99.90
1083;DHT22;530;51.448;7.238;2023-02-20T14:03:45;8.50;99.90
1083;DHT22;530;51.448;7.238;2023-02-20T14:06:16;8.50;99.90
1083;DHT22;530;51.448;7.238;2023-02-20T14:08:44;8.40;99.90
1083;DHT22;530;51.448;7.238;2023-02-20T14:14:27;8.40;99.90
1083;DHT22;530;51.448;7.238;2023-02-20T14:17:15;8.60;99.90
1083;DHT22;530;51.448;7.238;2023-02-20T14:19:45;8.40;99.90
1083;DHT22;530;51.448;7.238;2023-02-20T14:25:00;8.40;99.90
1083;DHT22;530;51.448;7.238;2023-02-20T14:27:30;8.40;99.90
1083;DHT22;530;51.448;7.238;2023-02-20T14:32:29;8.50;99.90
1083;DHT22;530;51.448;7.238;2023-02-20T14:35:10;8.50;99.90
1083;DHT22;530;51.448;7.238;2023-02-20T14:40:39;8.60;99.90
1083;DHT22;530;51.448;7.238;2023-02-20T14:43:25;8.50;99.90
1083;DHT22;530;51.448;7.238;2023-02-20T14:46:04;8.40;99.90
1083;DHT22;530;51.448;7.238;2023-02-20T14:48:32;8.50;99.90
1083;DHT22;530;51.448;7.238;2023-02-20T14:53:37;8.50;99.90
1083;DHT22;530;51.448;7.238;2023-02-20T14:58:36;8.50;99.90
1083;DHT22;530;51.448;7.238;2023-02-20T15:01:13;8.40;99.90
1083;DHT22;530;51.448;7.238;2023-02-20T15:03:40;8.50;99.90
1083;DHT22;530;51.448;7.238;2023-02-20T15:06:08;8.40;99.90
1083;DHT22;530;51.448;7.238;2023-02-20T15:08:37;8.50;99.90
1083;DHT22;530;51.448;7.238;2023-02-20T15:11:12;8.50;99.90
1083;DHT22;530;51.448;7.238;2023-02-20T15:13:40;8.50;99.90
1083;DHT22;530;51.448;7.238;2023-02-20T15:18:42;8.60;99.90
1083;DHT22;530;51.448;7.238;2023-02-20T15:21:09;8.70;99.90
1083;DHT22;530;51.448;7.238;2023-02-20T15:23:38;8.50;99.90
1083;DHT22;530;51.448;7.238;2023-02-20T15:31:44;8.40;99.90
1083;DHT22;530;51.448;7.238;2023-02-20T15:34:18;8.50;99.90
1083;DHT22;530;51.448;7.238;2023-02-20T15:36:47;8.60;99.90
1083;DHT22;530;51.448;7.238;2023-02-20T15:39:15;8.60;99.90
1083;DHT22;530;51.448;7.238;2023-02-20T15:41:42;8.60;99.90
1083;DHT22;530;51.448;7.238;2023-02-20T15:44:08;8.50;99.90
1083;DHT22;530;51.448;7.238;2023-02-20T15:46:35;8.70;99.90
1083;DHT22;530;51.448;7.238;2023-02-20T15:49:00;8.50;99.90
1083;DHT22;530;51.448;7.238;2023-02-20T15:51:26;8.50;99.90
1083;DHT22;530;51.448;7.238;2023-02-20T15:53:55;8.80;99.90
1083;DHT22;530;51.448;7.238;2023-02-20T15:56:21;8.60;99.90
1083;DHT22;530;51.448;7.238;2023-02-20T15:58:48;8.60;99.90
1083;DHT22;530;51.448;7.238;2023-02-20T16:01:14;8.50;99.90
1083;DHT22;530;51.448;7.238;2023-02-20T16:03:41;8.70;99.90
1083;DHT22;530;51.448;7.238;2023-02-20T16:06:07;8.60;99.90
1083;DHT22;530;51.448;7.238;2023-02-20T16:08:34;8.50;99.90
1083;DHT22;530;51.448;7.238;2023-02-20T16:11:00;8.70;99.90
1083;DHT22;530;51.448;7.238;2023-02-20T16:13:32;8.60;99.90
1083;DHT22;530;51.448;7.238;2023-02-20T16:16:08;8.40;99.90
1083;DHT22;530;51.448;7.238;2023-02-20T16:18:37;8.30;99.90
1083;DHT22;530;51.448;7.238;2023-02-20T16:21:03;8.80;99.90
1083;DHT22;530;51.448;7.238;2023-02-20T16:23:28;8.50;99.90
1083;DHT22;530;51.448;7.238;2023-02-20T16:25:55;8.60;99.90
1083;DHT22;530;51.448;7.238;2023-02-20T16:28:21;8.60;99.90
1083;DHT22;530;51.448;7.238;2023-02-20T16:30:47;8.60;99.90
1083;DHT22;530;51.448;7.238;2023-02-20T16:35:38;8.60;99.90
1083;DHT22;530;51.448;7.238;2023-02-20T16:38:04;8.60;99.90
1083;DHT22;530;51.448;7.238;2023-02-20T16:40:30;8.60;99.90
1083;DHT22;530;51.448;7.238;2023-02-20T16:42:56;8.60;99.90
1083;DHT22;530;51.448;7.238;2023-02-20T16:45:21;8.60;99.90
1083;DHT22;530;51.448;7.238;2023-02-20T16:47:52;8.60;99.90
1083;DHT22;530;51.448;7.238;2023-02-20T16:50:20;8.60;99.90
1083;DHT22;530;51.448;7.238;2023-02-20T16:52:49;8.50;99.90
1083;DHT22;530;51.448;7.238;2023-02-20T16:55:25;8.60;99.90
1083;DHT22;530;51.448;7.238;2023-02-20T16:57:51;8.60;99.90
1083;DHT22;530;51.448;7.238;2023-02-20T17:00:26;8.60;99.90
1083;DHT22;530;51.448;7.238;2023-02-20T17:02:52;8.70;99.90
1083;DHT22;530;51.448;7.238;2023-02-20T17:05:20;8.60;99.90
1083;DHT22;530;51.448;7.238;2023-02-20T17:07:47;8.60;99.90
1083;DHT22;530;51.448;7.238;2023-02-20T17:10:13;8.80;99.90
1083;DHT22;530;51.448;7.238;2023-02-20T17:12:40;8.60;99.90
1083;DHT22;530;51.448;7.238;2023-02-20T17:15:06;8.70;99.90
1083;DHT22;530;51.448;7.238;2023-02-20T17:17:33;8.60;99.90
1083;DHT22;530;51.448;7.238;2023-02-20T17:20:00;8.60;99.90
1083;DHT22;530;51.448;7.238;2023-02-20T17:22:27;8.60;99.90
1083;DHT22;530;51.448;7.238;2023-02-20T17:24:53;8.70;99.90
1083;DHT22;530;51.448;7.238;2023-02-20T17:27:20;8.70;99.90
1083;DHT22;530;51.448;7.238;2023-02-20T17:29:48;8.70;99.90
1083;DHT22;530;51.448;7.238;2023-02-20T17:32:14;8.70;99.90
1083;DHT22;530;51.448;7.238;2023-02-20T17:34:40;8.70;99.90
1083;DHT22;530;51.448;7.238;2023-02-20T17:37:07;8.80;99.90
1083;DHT22;530;51.448;7.238;2023-02-20T17:39:34;8.70;99.90
1083;DHT22;530;51.448;7.238;2023-02-20T17:42:00;8.80;99.90
1083;DHT22;530;51.448;7.238;2023-02-20T17:44:30;8.70;99.90
1083;DHT22;530;51.448;7.238;2023-02-20T17:46:57;8.70;99.90
1083;DHT22;530;51.448;7.238;2023-02-20T17:49:24;8.60;99.90
1083;DHT22;530;51.448;7.238;2023-02-20T17:51:53;8.80;99.90
1083;DHT22;530;51.448;7.238;2023-02-20T17:54:20;8.70;99.90
1083;DHT22;530;51.448;7.238;2023-02-20T17:56:50;8.80;99.90
1083;DHT22;530;51.448;7.238;2023-02-20T17:59:16;8.70;99.90
1083;DHT22;530;51.448;7.238;2023-02-20T18:01:43;8.80;99.90
1083;DHT22;530;51.448;7.238;2023-02-20T18:04:09;8.60;99.90
1083;DHT22;530;51.448;7.238;2023-02-20T18:06:36;8.70;99.90
1083;DHT22;530;51.448;7.238;2023-02-20T18:09:04;8.70;99.90
1083;DHT22;530;51.448;7.238;2023-02-20T18:11:30;8.70;99.90
1083;DHT22;530;51.448;7.238;2023-02-20T18:13:56;8.70;99.90
1083;DHT22;530;51.448;7.238;2023-02-20T18:16:23;8.70;99.90
1083;DHT22;530;51.448;7.238;2023-02-20T18:18:49;9.00;99.90
1083;DHT22;530;51.448;7.238;2023-02-20T18:21:24;8.80;99.90
1083;DHT22;530;51.448;7.238;2023-02-20T18:23:50;8.80;99.90
1083;DHT22;530;51.448;7.238;2023-02-20T18:26:16;8.80;99.90
1083;DHT22;530;51.448;7.238;2023-02-20T18:28:42;8.80;99.90
1083;DHT22;530;51.448;7.238;2023-02-20T18:31:09;8.80;99.90
1083;DHT22;530;51.448;7.238;2023-02-20T18:33:35;8.70;99.90
1083;DHT22;530;51.448;7.238;2023-02-20T18:36:01;8.80;99.90
1083;DHT22;530;51.448;7.238;2023-02-20T18:38:26;8.80;99.90
1083;DHT22;530;51.448;7.238;2023-02-20T18:40:52;9.00;99.90
1083;DHT22;530;51.448;7.238;2023-02-20T18:43:18;8.80;99.90
1083;DHT22;530;51.448;7.238;2023-02-20T18:45:43;8.80;99.90
1083;DHT22;530;51.448;7.238;2023-02-20T18:48:09;8.80;99.90
1083;DHT22;530;51.448;7.238;2023-02-20T18:50:35;8.90;99.90
1083;DHT22;530;51.448;7.238;2023-02-20T18:53:01;8.90;99.90
1083;DHT22;530;51.448;7.238;2023-02-20T18:55:26;8.90;99.90
1083;DHT22;530;51.448;7.238;2023-02-20T18:57:52;8.80;99.90
1083;DHT22;530;51.448;7.238;2023-02-20T19:00:21;8.80;99.90
1083;DHT22;530;51.448;7.238;2023-02-20T19:02:52;8.80;99.90
1083;DHT22;530;51.448;7.238;2023-02-20T19:05:19;8.60;99.90
1083;DHT22;530;51.448;7.238;2023-02-20T19:07:46;8.80;99.90
1083;DHT22;530;51.448;7.238;2023-02-20T19:10:23;8.80;99.90
1083;DHT22;530;51.448;7.238;2023-02-20T19:12:49;8.80;99.90